sensor_id;sensor_type;location;lat;lon;timestamp;temperature;humidity
3466;DHT22;1747;48.884;9.160;2023-05-20T00:01:39;13.30;99.90
3466;DHT22;1747;48.884;9.160;2023-05-20T00:04:06;13.30;99.90
3466;DHT22;1747;48.884;9.160;2023-05-20T00:06:33;13.30;99.90
3466;DHT22;1747;48.884;9.160;2023-05-20T00:09:00;13.30;99.90
3466;DHT22;1747;48.884;9.160;2023-05-20T00:11:29;13.30;99.90
3466;DHT22;1747;48.884;9.160;2023-05-20T00:13:56;13.30;99.90
3466;DHT22;1747;48.884;9.160;2023-05-20T00:16:23;13.30;99.90
3466;DHT22;1747;48.884;9.160;2023-05-20T00:18:49;13.30;99.90
3466;DHT22;1747;48.884;9.160;2023-05-20T00:21:16;13.30;99.90
3466;DHT22;1747;48.884;9.160;2023-05-20T00:23:43;13.30;99.90
3466;DHT22;1747;48.884;9.160;2023-05-20T00:26:10;13.30;99.90
3466;DHT22;1747;48.884;9.160;2023-05-20T00:28:38;13.30;99.90
3466;DHT22;1747;48.884;9.160;2023-05-20T00:31:04;13.20;99.90
3466;DHT22;1747;48.884;9.160;2023-05-20T00:33:31;13.30;99.90
3466;DHT22;1747;48.884;9.160;2023-05-20T00:36:00;13.20;99.90
3466;DHT22;1747;48.884;9.160;2023-05-20T00:38:27;13.30;99.90
3466;DHT22;1747;48.884;9.160;2023-05-20T00:40:54;13.30;99.90
3466;DHT22;1747;48.884;9.160;2023-05-20T00:43:20;13.30;99.90
3466;DHT22;1747;48.884;9.160;2023-05-20T00:45:51;13.30;99.90
3466;DHT22;1747;48.884;9.160;2023-05-20T00:48:18;13.30;99.90
3466;DHT22;1747;48.884;9.160;2023-05-20T00:50:46;13.30;99.90
3466;DHT22;1747;48.884;9.160;2023-05-20T00:53:13;13.40;99.90
3466;DHT22;1747;48.884;9.160;2023-05-20T00:55:42;13.40;99.90
3466;DHT22;1747;48.884;9.160;2023-05-20T00:58:09;13.40;99.90
3466;DHT22;1747;48.884;9.160;2023-05-20T01:00:36;13.40;99.90
3466;DHT22;1747;48.884;9.160;2023-05-20T01:03:04;13.40;99.90
3466;DHT22;1747;48.884;9.160;2023-05-20T01:05:31;13.40;99.90
3466;DHT22;1747;48.884;9.160;2023-05-20T01:07:58;13.40;99.90
3466;DHT22;1747;48.884;9.160;2023-05-20T01:10:25;13.40;99.90
3466;DHT22;1747;48.884;9.160;2023-05-20T01:12:57;13.40;99.90
3466;DHT22;1747;48.884;9.160;2023-05-20T01:15:26;13.40;99.90
3466;DHT22;1747;48.884;9.160;2023-05-20T01:17:57;13.40;99.90
3466;DHT22;1747;48.884;9.160;2023-05-20T01:20:28;13.40;99.90
3466;DHT22;1747;48.884;9.160;2023-05-20T01:22:58;13.40;99.90
3466;DHT22;1747;48.884;9.160;2023-05-20T01:25:25;13.50;99.90
3466;DHT22;1747;48.884;9.160;2023-05-20T01:27:53;13.50;99.90
3466;DHT22;1747;48.884;9.160;2023-05-20T01:30:21;13.50;99.90
3466;DHT22;1747;48.884;9.160;2023-05-20T01:32:50;13.60;99.90
3466;DHT22;1747;48.884;9.160;2023-05-20T01:35:18;13.60;99.90
3466;DHT22;1747;48.884;9.160;2023-05-20T01:37:46;13.60;99.90
3466;DHT22;1747;48.884;9.160;2023-05-20T01:40:15;13.60;99.90
3466;DHT22;1747;48.884;9.160;2023-05-20T01:42:43;13.60;99.90
3466;DHT22;1747;48.884;9.160;2023-05-20T01:45:11;13.60;99.90
3466;DHT22;1747;48.884;9.160;2023-05-20T01:47:37;13.60;99.90
3466;DHT22;1747;48.884;9.160;2023-05-20T01:50:05;13.60;99.90
3466;DHT22;1747;48.884;9.160;2023-05-20T01:52:32;13.70;99.90
3466;DHT22;1747;48.884;9.160;2023-05-20T01:54:59;13.70;99.90
3466;DHT22;1747;48.884;9.160;2023-05-20T01:57:27;13.70;99.90
3466;DHT22;1747;48.884;9.160;2023-05-20T01:59:54;13.60;99.90
3466;DHT22;1747;48.884;9.160;2023-05-20T02:02:21;13.60;99.90
3466;DHT22;1747;48.884;9.160;2023-05-20T02:04:49;13.70;99.90
3466;DHT22;1747;48.884;9.160;2023-05-20T02:07:17;13.70;99.90
3466;DHT22;1747;48.884;9.160;2023-05-20T02:09:44;13.70;99.90
3466;DHT22;1747;48.884;9.160;2023-05-20T02:12:11;13.70;99.90
3466;DHT22;1747;48.884;9.160;2023-05-20T02:14:42;13.70;99.90
3466;DHT22;1747;48.884;9.160;2023-05-20T02:17:09;13.70;99.90
3466;DHT22;1747;48.884;9.160;2023-05-20T02:19:36;13.70;99.90
3466;DHT22;1747;48.884;9.160;2023-05-20T02:22:03;13.70;99.90
3466;DHT22;1747;48.884;9.160;2023-05-20T02:24:30;13.70;99.90
3466;DHT22;1747;48.884;9.160;2023-05-20T02:26:57;13.70;99.90
3466;DHT22;1747;48.884;9.160;2023-05-20T02:29:24;13.60;99.90
3466;DHT22;1747;48.884;9.160;2023-05-20T02:31:52;13.60;99.90
3466;DHT22;1747;48.884;9.160;2023-05-20T02:34:19;13.60;99.90
3466;DHT22;1747;48.884;9.160;2023-05-20T02:36:46;13.60;99.90
3466;DHT22;1747;48.884;9.160;2023-05-20T02:39:13;13.60;99.90
3466;DHT22;1747;48.884;9.160;2023-05-20T02:41:41;13.60;99.90
3466;DHT22;1747;48.884;9.160;2023-05-20T02:44:08;13.60;99.90
3466;DHT22;1747;48.884;9.160;2023-05-20T02:46:34;13.60;99.90
3466;DHT22;1747;48.884;9.160;2023-05-20T02:49:03;13.60;99.90
3466;DHT22;1747;48.884;9.160;2023-05-20T02:51:29;13.60;99.90
3466;DHT22;1747;48.884;9.160;2023-05-20T02:53:57;13.60;99.90
3466;DHT22;1747;48.884;9.160;2023-05-20T02:56:24;13.60;99.90
3466;DHT22;1747;48.884;9.160;2023-05-20T02:58:51;13.60;99.90
3466;DHT22;1747;48.884;9.160;2023-05-20T03:01:18;13.50;99.90
3466;DHT22;1747;48.884;9.160;2023-05-20T03:03:45;13.50;99.90
3466;DHT22;1747;48.884;9.160;2023-05-20T03:06:13;13.50;99.90
3466;DHT22;1747;48.884;9.160;2023-05-20T03:08:40;13.40;99.90
3466;DHT22;1747;48.884;9.160;2023-05-20T03:11:07;13.40;99.90
3466;DHT22;1747;48.884;9.160;2023-05-20T03:13:34;13.40;99.90
3466;DHT22;1747;48.884;9.160;2023-05-20T03:16:01;13.40;99.90
3466;DHT22;1747;48.884;9.160;2023-05-20T03:18:28;13.40;99.90
3466;DHT22;1747;48.884;9.160;2023-05-20T03:20:55;13.40;99.90
3466;DHT22;1747;48.884;9.160;2023-05-20T03:23:23;13.40;99.90
3466;DHT22;1747;48.884;9.160;2023-05-20T03:25:50;13.40;99.90
3466;DHT22;1747;48.884;9.160;2023-05-20T03:28:17;13.40;99.90
3466;DHT22;1747;48.884;9.160;2023-05-20T03:30:43;13.40;99.90
3466;DHT22;1747;48.884;9.160;2023-05-20T03:33:10;13.40;99.90
3466;DHT22;1747;48.884;9.160;2023-05-20T03:35:37;13.40;99.90
3466;DHT22;1747;48.884;9.160;2023-05-20T03:38:04;13.40;99.90
3466;DHT22;1747;48.884;9.160;2023-05-20T03:40:32;13.40;99.90
3466;DHT22;1747;48.884;9.160;2023-05-20T03:42:59;13.40;99.90
3466;DHT22;1747;48.884;9.160;2023-05-20T03:45:25;13.40;99.90
3466;DHT22;1747;48.884;9.160;2023-05-20T03:47:52;13.40;99.90
3466;DHT22;1747;48.884;9.160;2023-05-20T03:50:19;13.40;99.90
3466;DHT22;1747;48.884;9.160;2023-05-20T03:52:46;13.40;99.90
3466;DHT22;1747;48.884;9.160;2023-05-20T03:55:13;13.40;99.90
3466;DHT22;1747;48.884;9.160;2023-05-20T03:57:41;13.40;99.90
3466;DHT22;1747;48.884;9.160;2023-05-20T04:00:08;13.40;99.90
3466;DHT22;1747;48.884;9.160;2023-05-20T04:02:36;13.40;99.90
3466;DHT22;1747;48.884;9.160;2023-05-20T04:05:04;13.30;99.90
3466;DHT22;1747;48.884;9.160;2023-05-20T04:07:33;13.30;99.90
3466;DHT22;1747;48.884;9.160;2023-05-20T04:10:00;13.30;99.90
3466;DHT22;1747;48.884;9.160;2023-05-20T04:12:27;13.30;99.90
3466;DHT22;1747;48.884;9.160;2023-05-20T04:14:57;13.30;99.90
3466;DHT22;1747;48.884;9.160;2023-05-20T04:17:25;13.30;99.90
3466;DHT22;1747;48.884;9.160;2023-05-20T04:19:52;13.30;99.90
3466;DHT22;1747;48.884;9.160;2023-05-20T04:22:19;13.30;99.90
3466;DHT22;1747;48.884;9.160;2023-05-20T04:24:46;13.30;99.90
3466;DHT22;1747;48.884;9.160;2023-05-20T04:27:13;13.30;99.90
3466;DHT22;1747;48.884;9.160;2023-05-20T04:29:40;13.30;99.90
3466;DHT22;1747;48.884;9.160;2023-05-20T04:32:12;13.30;99.90
3466;DHT22;1747;48.884;9.160;2023-05-20T04:34:39;13.30;99.90
3466;DHT22;1747;48.884;9.160;2023-05-20T04:37:05;13.40;99.90
3466;DHT22;1747;48.884;9.160;2023-05-20T04:39:34;13.50;99.90
3466;DHT22;1747;48.884;9.160;2023-05-20T04:42:00;13.50;99.90
3466;DHT22;1747;48.884;9.160;2023-05-20T04:44:28;13.60;99.90
3466;DHT22;1747;48.884;9.160;2023-05-20T04:46:55;13.70;99.90
3466;DHT22;1747;48.884;9.160;2023-05-20T04:49:23;13.70;99.90
3466;DHT22;1747;48.884;9.160;2023-05-20T04:51:51;13.80;99.90
3466;DHT22;1747;48.884;9.160;2023-05-20T04:54:19;13.80;99.90
3466;DHT22;1747;48.884;9.160;2023-05-20T04:56:46;13.80;99.90
3466;DHT22;1747;48.884;9.160;2023-05-20T04:59:13;13.80;99.90
3466;DHT22;1747;48.884;9.160;2023-05-20T05:01:40;13.80;99.90
3466;DHT22;1747;48.884;9.160;2023-05-20T05:04:07;13.90;99.90
3466;DHT22;1747;48.884;9.160;2023-05-20T05:06:35;13.90;99.90
3466;DHT22;1747;48.884;9.160;2023-05-20T05:09:02;13.80;99.90
3466;DHT22;1747;48.884;9.160;2023-05-20T05:11:29;13.80;99.90
3466;DHT22;1747;48.884;9.160;2023-05-20T05:13:56;13.90;99.90
3466;DHT22;1747;48.884;9.160;2023-05-20T05:16:22;13.90;99.90
3466;DHT22;1747;48.884;9.160;2023-05-20T05:18:49;14.00;99.90
3466;DHT22;1747;48.884;9.160;2023-05-20T05:21:16;14.00;99.90
3466;DHT22;1747;48.884;9.160;2023-05-20T05:23:44;14.10;99.90
3466;DHT22;1747;48.884;9.160;2023-05-20T05:26:11;14.20;99.90
3466;DHT22;1747;48.884;9.160;2023-05-20T05:28:39;14.30;99.90
3466;DHT22;1747;48.884;9.160;2023-05-20T05:31:06;14.40;99.90
3466;DHT22;1747;48.884;9.160;2023-05-20T05:33:33;14.50;99.90
3466;DHT22;1747;48.884;9.160;2023-05-20T05:36:00;14.60;99.90
3466;DHT22;1747;48.884;9.160;2023-05-20T05:38:27;14.70;99.90
3466;DHT22;1747;48.884;9.160;2023-05-20T05:40:55;14.70;99.90
3466;DHT22;1747;48.884;9.160;2023-05-20T05:43:22;14.70;99.90
3466;DHT22;1747;48.884;9.160;2023-05-20T05:45:48;14.80;99.90
3466;DHT22;1747;48.884;9.160;2023-05-20T05:48:15;14.90;99.90
3466;DHT22;1747;48.884;9.160;2023-05-20T05:50:43;14.90;99.90
3466;DHT22;1747;48.884;9.160;2023-05-20T05:53:11;15.00;99.90
3466;DHT22;1747;48.884;9.160;2023-05-20T05:55:38;15.00;99.90
3466;DHT22;1747;48.884;9.160;2023-05-20T05:58:06;15.10;99.90
3466;DHT22;1747;48.884;9.160;2023-05-20T06:00:33;15.20;99.90
3466;DHT22;1747;48.884;9.160;2023-05-20T06:02:59;15.20;99.90
3466;DHT22;1747;48.884;9.160;2023-05-20T06:05:26;15.30;99.90
3466;DHT22;1747;48.884;9.160;2023-05-20T06:07:53;15.40;99.90
3466;DHT22;1747;48.884;9.160;2023-05-20T06:10:20;15.40;99.90
3466;DHT22;1747;48.884;9.160;2023-05-20T06:12:46;15.50;99.90
3466;DHT22;1747;48.884;9.160;2023-05-20T06:15:15;15.60;99.90
3466;DHT22;1747;48.884;9.160;2023-05-20T06:17:41;15.70;99.90
3466;DHT22;1747;48.884;9.160;2023-05-20T06:20:09;15.80;99.90
3466;DHT22;1747;48.884;9.160;2023-05-20T06:22:36;15.80;99.90
3466;DHT22;1747;48.884;9.160;2023-05-20T06:25:03;16.00;99.90
3466;DHT22;1747;48.884;9.160;2023-05-20T06:27:30;16.00;99.90
3466;DHT22;1747;48.884;9.160;2023-05-20T06:29:57;16.00;99.90
3466;DHT22;1747;48.884;9.160;2023-05-20T06:32:25;16.10;99.90
3466;DHT22;1747;48.884;9.160;2023-05-20T06:34:52;16.20;99.90
3466;DHT22;1747;48.884;9.160;2023-05-20T06:37:19;16.30;99.90
3466;DHT22;1747;48.884;9.160;2023-05-20T06:39:48;16.30;99.90
3466;DHT22;1747;48.884;9.160;2023-05-20T06:42:18;16.40;99.90
3466;DHT22;1747;48.884;9.160;2023-05-20T06:44:45;16.50;99.90
3466;DHT22;1747;48.884;9.160;2023-05-20T06:47:13;16.50;99.90
3466;DHT22;1747;48.884;9.160;2023-05-20T06:49:42;16.60;99.90
3466;DHT22;1747;48.884;9.160;2023-05-20T06:52:08;16.70;99.90
3466;DHT22;1747;48.884;9.160;2023-05-20T06:54:36;16.80;99.90
3466;DHT22;1747;48.884;9.160;2023-05-20T06:57:06;17.00;99.90
3466;DHT22;1747;48.884;9.160;2023-05-20T06:59:32;17.10;99.90
3466;DHT22;1747;48.884;9.160;2023-05-20T07:01:59;17.20;99.90
3466;DHT22;1747;48.884;9.160;2023-05-20T07:04:26;17.30;99.90
3466;DHT22;1747;48.884;9.160;2023-05-20T07:06:54;17.40;99.90
3466;DHT22;1747;48.884;9.160;2023-05-20T07:09:21;17.50;99.90
3466;DHT22;1747;48.884;9.160;2023-05-20T07:11:48;17.60;99.90
3466;DHT22;1747;48.884;9.160;2023-05-20T07:14:16;17.60;99.90
3466;DHT22;1747;48.884;9.160;2023-05-20T07:16:43;17.70;99.90
3466;DHT22;1747;48.884;9.160;2023-05-20T07:19:10;17.70;99.90
3466;DHT22;1747;48.884;9.160;2023-05-20T07:21:37;17.80;99.90
3466;DHT22;1747;48.884;9.160;2023-05-20T07:24:06;17.70;99.90
3466;DHT22;1747;48.884;9.160;2023-05-20T07:26:32;17.90;99.90
3466;DHT22;1747;48.884;9.160;2023-05-20T07:29:01;17.90;99.90
3466;DHT22;1747;48.884;9.160;2023-05-20T07:31:28;18.00;99.90
3466;DHT22;1747;48.884;9.160;2023-05-20T07:33:55;18.20;99.90
3466;DHT22;1747;48.884;9.160;2023-05-20T07:36:22;18.20;99.90
3466;DHT22;1747;48.884;9.160;2023-05-20T07:38:49;18.30;99.90
3466;DHT22;1747;48.884;9.160;2023-05-20T07:41:17;18.30;99.90
3466;DHT22;1747;48.884;9.160;2023-05-20T07:43:45;18.30;99.90
3466;DHT22;1747;48.884;9.160;2023-05-20T07:46:12;18.20;99.90
3466;DHT22;1747;48.884;9.160;2023-05-20T07:48:38;18.20;99.90
3466;DHT22;1747;48.884;9.160;2023-05-20T07:51:05;18.20;99.90
3466;DHT22;1747;48.884;9.160;2023-05-20T07:53:32;18.20;99.90
3466;DHT22;1747;48.884;9.160;2023-05-20T07:55:59;18.30;99.90
3466;DHT22;1747;48.884;9.160;2023-05-20T07:58:28;18.50;99.90
3466;DHT22;1747;48.884;9.160;2023-05-20T08:00:56;18.50;99.90
3466;DHT22;1747;48.884;9.160;2023-05-20T08:03:23;18.60;99.90
3466;DHT22;1747;48.884;9.160;2023-05-20T08:05:51;18.70;99.90
3466;DHT22;1747;48.884;9.160;2023-05-20T08:08:18;18.70;99.90
3466;DHT22;1747;48.884;9.160;2023-05-20T08:10:44;18.80;99.90
3466;DHT22;1747;48.884;9.160;2023-05-20T08:13:11;19.00;99.90
3466;DHT22;1747;48.884;9.160;2023-05-20T08:15:40;19.10;99.90
3466;DHT22;1747;48.884;9.160;2023-05-20T08:18:07;19.30;99.90
3466;DHT22;1747;48.884;9.160;2023-05-20T08:20:33;19.50;99.90
3466;DHT22;1747;48.884;9.160;2023-05-20T08:23:00;19.70;99.90
3466;DHT22;1747;48.884;9.160;2023-05-20T08:25:27;19.80;99.90
3466;DHT22;1747;48.884;9.160;2023-05-20T08:27:54;19.80;99.90
3466;DHT22;1747;48.884;9.160;2023-05-20T08:30:21;19.70;99.90
3466;DHT22;1747;48.884;9.160;2023-05-20T08:32:49;19.60;99.90
3466;DHT22;1747;48.884;9.160;2023-05-20T08:35:16;19.80;99.90
3466;DHT22;1747;48.884;9.160;2023-05-20T08:37:43;19.80;99.90
3466;DHT22;1747;48.884;9.160;2023-05-20T08:40:11;19.80;99.90
3466;DHT22;1747;48.884;9.160;2023-05-20T08:42:41;19.70;99.90
3466;DHT22;1747;48.884;9.160;2023-05-20T08:45:10;19.70;99.90
3466;DHT22;1747;48.884;9.160;2023-05-20T08:47:40;19.80;99.90
3466;DHT22;1747;48.884;9.160;2023-05-20T08:50:10;19.90;99.90
3466;DHT22;1747;48.884;9.160;2023-05-20T08:52:46;20.10;99.90
3466;DHT22;1747;48.884;9.160;2023-05-20T08:55:15;20.30;99.90
3466;DHT22;1747;48.884;9.160;2023-05-20T08:57:47;20.40;99.90
3466;DHT22;1747;48.884;9.160;2023-05-20T09:00:15;20.30;99.90
3466;DHT22;1747;48.884;9.160;2023-05-20T09:02:44;20.30;99.90
3466;DHT22;1747;48.884;9.160;2023-05-20T09:05:13;20.40;99.90
3466;DHT22;1747;48.884;9.160;2023-05-20T09:07:40;20.50;99.90
3466;DHT22;1747;48.884;9.160;2023-05-20T09:10:09;20.70;99.90
3466;DHT22;1747;48.884;9.160;2023-05-20T09:12:36;20.80;99.90
3466;DHT22;1747;48.884;9.160;2023-05-20T09:15:04;20.80;99.90
3466;DHT22;1747;48.884;9.160;2023-05-20T09:17:31;20.90;99.90
3466;DHT22;1747;48.884;9.160;2023-05-20T09:20:00;20.90;99.90
3466;DHT22;1747;48.884;9.160;2023-05-20T09:22:29;21.00;99.90
3466;DHT22;1747;48.884;9.160;2023-05-20T09:24:57;21.00;99.90
3466;DHT22;1747;48.884;9.160;2023-05-20T09:27:24;21.10;99.90
3466;DHT22;1747;48.884;9.160;2023-05-20T09:29:51;21.10;99.90
3466;DHT22;1747;48.884;9.160;2023-05-20T09:32:20;20.90;99.90
3466;DHT22;1747;48.884;9.160;2023-05-20T09:34:48;20.80;99.90
3466;DHT22;1747;48.884;9.160;2023-05-20T09:37:17;20.80;99.90
3466;DHT22;1747;48.884;9.160;2023-05-20T09:39:53;20.90;99.90
3466;DHT22;1747;48.884;9.160;2023-05-20T09:42:25;21.00;99.90
3466;DHT22;1747;48.884;9.160;2023-05-20T09:44:54;21.10;99.90
3466;DHT22;1747;48.884;9.160;2023-05-20T09:47:22;21.10;99.90
3466;DHT22;1747;48.884;9.160;2023-05-20T09:49:51;21.20;99.90
3466;DHT22;1747;48.884;9.160;2023-05-20T09:52:18;21.30;99.90
3466;DHT22;1747;48.884;9.160;2023-05-20T09:54:47;21.30;99.90
3466;DHT22;1747;48.884;9.160;2023-05-20T09:57:15;21.30;99.90
3466;DHT22;1747;48.884;9.160;2023-05-20T09:59:43;21.50;99.90
3466;DHT22;1747;48.884;9.160;2023-05-20T10:02:11;21.60;99.90
3466;DHT22;1747;48.884;9.160;2023-05-20T10:04:43;21.80;99.90
3466;DHT22;1747;48.884;9.160;2023-05-20T10:07:23;22.00;99.90
3466;DHT22;1747;48.884;9.160;2023-05-20T10:10:08;22.10;99.90
3466;DHT22;1747;48.884;9.160;2023-05-20T10:12:47;22.30;99.90
3466;DHT22;1747;48.884;9.160;2023-05-20T10:15:23;22.40;99.90
3466;DHT22;1747;48.884;9.160;2023-05-20T10:17:59;22.40;99.90
3466;DHT22;1747;48.884;9.160;2023-05-20T10:20:28;22.50;99.90
3466;DHT22;1747;48.884;9.160;2023-05-20T10:22:56;22.60;99.90
3466;DHT22;1747;48.884;9.160;2023-05-20T10:25:26;22.80;99.90
3466;DHT22;1747;48.884;9.160;2023-05-20T10:28:03;22.90;99.90
3466;DHT22;1747;48.884;9.160;2023-05-20T10:30:32;23.00;99.90
3466;DHT22;1747;48.884;9.160;2023-05-20T10:33:03;23.10;99.30
3466;DHT22;1747;48.884;9.160;2023-05-20T10:35:31;23.20;99.00
3466;DHT22;1747;48.884;9.160;2023-05-20T10:38:08;23.20;98.60
3466;DHT22;1747;48.884;9.160;2023-05-20T10:40:37;23.30;98.30
3466;DHT22;1747;48.884;9.160;2023-05-20T10:43:08;23.20;98.40
3466;DHT22;1747;48.884;9.160;2023-05-20T10:45:47;23.10;98.50
3466;DHT22;1747;48.884;9.160;2023-05-20T10:48:23;23.20;99.30
3466;DHT22;1747;48.884;9.160;2023-05-20T10:50:53;23.10;98.90
3466;DHT22;1747;48.884;9.160;2023-05-20T10:53:23;23.20;99.30
3466;DHT22;1747;48.884;9.160;2023-05-20T10:55:52;23.30;98.50
3466;DHT22;1747;48.884;9.160;2023-05-20T10:58:20;23.40;98.10
3466;DHT22;1747;48.884;9.160;2023-05-20T11:00:48;23.50;98.20
3466;DHT22;1747;48.884;9.160;2023-05-20T11:03:15;23.60;98.10
3466;DHT22;1747;48.884;9.160;2023-05-20T11:05:44;23.70;97.50
3466;DHT22;1747;48.884;9.160;2023-05-20T11:08:11;23.80;97.00
3466;DHT22;1747;48.884;9.160;2023-05-20T11:10:38;23.70;97.10
3466;DHT22;1747;48.884;9.160;2023-05-20T11:13:11;23.80;96.80
3466;DHT22;1747;48.884;9.160;2023-05-20T11:15:39;23.70;96.80
3466;DHT22;1747;48.884;9.160;2023-05-20T11:18:06;23.80;97.60
3466;DHT22;1747;48.884;9.160;2023-05-20T11:20:33;24.00;96.40
3466;DHT22;1747;48.884;9.160;2023-05-20T11:23:01;24.20;96.30
3466;DHT22;1747;48.884;9.160;2023-05-20T11:25:28;24.30;95.70
3466;DHT22;1747;48.884;9.160;2023-05-20T11:27:54;24.20;96.00
3466;DHT22;1747;48.884;9.160;2023-05-20T11:30:23;24.20;96.70
3466;DHT22;1747;48.884;9.160;2023-05-20T11:32:58;24.50;95.60
3466;DHT22;1747;48.884;9.160;2023-05-20T11:35:25;24.50;95.40
3466;DHT22;1747;48.884;9.160;2023-05-20T11:37:54;24.60;95.60
3466;DHT22;1747;48.884;9.160;2023-05-20T11:40:24;24.70;94.70
3466;DHT22;1747;48.884;9.160;2023-05-20T11:42:53;24.70;94.80
3466;DHT22;1747;48.884;9.160;2023-05-20T11:45:21;24.70;94.60
3466;DHT22;1747;48.884;9.160;2023-05-20T11:48:00;24.80;94.20
3466;DHT22;1747;48.884;9.160;2023-05-20T11:50:27;24.90;94.50
3466;DHT22;1747;48.884;9.160;2023-05-20T11:52:57;25.00;93.90
3466;DHT22;1747;48.884;9.160;2023-05-20T11:55:25;25.00;93.70
3466;DHT22;1747;48.884;9.160;2023-05-20T11:57:53;25.10;94.10
3466;DHT22;1747;48.884;9.160;2023-05-20T12:00:21;25.20;93.80
3466;DHT22;1747;48.884;9.160;2023-05-20T12:02:48;25.20;93.20
3466;DHT22;1747;48.884;9.160;2023-05-20T12:05:16;25.10;93.30
3466;DHT22;1747;48.884;9.160;2023-05-20T12:07:43;25.20;93.20
3466;DHT22;1747;48.884;9.160;2023-05-20T12:10:10;25.00;93.30
3466;DHT22;1747;48.884;9.160;2023-05-20T12:12:38;25.10;93.70
3466;DHT22;1747;48.884;9.160;2023-05-20T12:15:05;25.20;94.10
3466;DHT22;1747;48.884;9.160;2023-05-20T12:17:45;25.30;94.00
3466;DHT22;1747;48.884;9.160;2023-05-20T12:20:13;25.60;93.90
3466;DHT22;1747;48.884;9.160;2023-05-20T12:22:42;25.80;93.30
3466;DHT22;1747;48.884;9.160;2023-05-20T12:25:11;25.80;92.20
3466;DHT22;1747;48.884;9.160;2023-05-20T12:27:38;25.90;92.40
3466;DHT22;1747;48.884;9.160;2023-05-20T12:30:06;25.90;92.90
3466;DHT22;1747;48.884;9.160;2023-05-20T12:32:34;26.10;92.20
3466;DHT22;1747;48.884;9.160;2023-05-20T12:35:01;26.70;91.40
3466;DHT22;1747;48.884;9.160;2023-05-20T12:37:27;27.20;90.80
3466;DHT22;1747;48.884;9.160;2023-05-20T12:39:55;27.60;90.40
3466;DHT22;1747;48.884;9.160;2023-05-20T12:42:22;27.50;89.70
3466;DHT22;1747;48.884;9.160;2023-05-20T12:44:49;27.60;90.20
3466;DHT22;1747;48.884;9.160;2023-05-20T12:47:16;27.90;88.40
3466;DHT22;1747;48.884;9.160;2023-05-20T12:49:43;28.20;91.30
3466;DHT22;1747;48.884;9.160;2023-05-20T12:52:09;28.40;88.90
3466;DHT22;1747;48.884;9.160;2023-05-20T12:54:36;28.50;86.90
3466;DHT22;1747;48.884;9.160;2023-05-20T12:57:05;28.30;86.30
3466;DHT22;1747;48.884;9.160;2023-05-20T12:59:31;28.20;88.30
3466;DHT22;1747;48.884;9.160;2023-05-20T13:01:58;28.00;86.30
3466;DHT22;1747;48.884;9.160;2023-05-20T13:04:25;27.80;86.70
3466;DHT22;1747;48.884;9.160;2023-05-20T13:06:52;27.60;87.10
3466;DHT22;1747;48.884;9.160;2023-05-20T13:09:19;27.50;90.20
3466;DHT22;1747;48.884;9.160;2023-05-20T13:11:46;27.50;88.90
3466;DHT22;1747;48.884;9.160;2023-05-20T13:14:14;27.80;88.80
3466;DHT22;1747;48.884;9.160;2023-05-20T13:16:41;28.10;86.20
3466;DHT22;1747;48.884;9.160;2023-05-20T13:19:07;28.20;84.20
3466;DHT22;1747;48.884;9.160;2023-05-20T13:21:34;28.00;84.00
3466;DHT22;1747;48.884;9.160;2023-05-20T13:24:01;27.80;84.80
3466;DHT22;1747;48.884;9.160;2023-05-20T13:26:28;27.90;83.80
3466;DHT22;1747;48.884;9.160;2023-05-20T13:28:55;28.30;83.80
3466;DHT22;1747;48.884;9.160;2023-05-20T13:31:24;28.80;82.10
3466;DHT22;1747;48.884;9.160;2023-05-20T13:33:51;29.30;80.20
3466;DHT22;1747;48.884;9.160;2023-05-20T13:36:19;29.80;80.60
3466;DHT22;1747;48.884;9.160;2023-05-20T13:38:46;30.20;79.60
3466;DHT22;1747;48.884;9.160;2023-05-20T13:41:13;30.40;78.20
3466;DHT22;1747;48.884;9.160;2023-05-20T13:43:40;30.60;78.80
3466;DHT22;1747;48.884;9.160;2023-05-20T13:46:07;30.80;78.10
3466;DHT22;1747;48.884;9.160;2023-05-20T13:48:35;30.90;77.00
3466;DHT22;1747;48.884;9.160;2023-05-20T13:51:02;30.70;76.10
3466;DHT22;1747;48.884;9.160;2023-05-20T13:53:29;30.10;75.70
3466;DHT22;1747;48.884;9.160;2023-05-20T13:55:56;29.50;76.10
3466;DHT22;1747;48.884;9.160;2023-05-20T13:58:23;29.20;76.60
3466;DHT22;1747;48.884;9.160;2023-05-20T14:00:49;29.10;77.50
3466;DHT22;1747;48.884;9.160;2023-05-20T14:03:16;28.70;80.50
3466;DHT22;1747;48.884;9.160;2023-05-20T14:05:45;28.60;79.00
3466;DHT22;1747;48.884;9.160;2023-05-20T14:08:12;28.50;78.70
3466;DHT22;1747;48.884;9.160;2023-05-20T14:10:39;28.30;79.20
3466;DHT22;1747;48.884;9.160;2023-05-20T14:13:05;28.20;79.00
3466;DHT22;1747;48.884;9.160;2023-05-20T14:15:33;28.40;79.20
3466;DHT22;1747;48.884;9.160;2023-05-20T14:18:00;28.50;78.40
3466;DHT22;1747;48.884;9.160;2023-05-20T14:20:26;28.40;78.70
3466;DHT22;1747;48.884;9.160;2023-05-20T14:22:54;28.10;78.40
3466;DHT22;1747;48.884;9.160;2023-05-20T14:25:21;27.90;78.50
3466;DHT22;1747;48.884;9.160;2023-05-20T14:27:48;27.70;78.30
3466;DHT22;1747;48.884;9.160;2023-05-20T14:30:15;27.50;78.20
3466;DHT22;1747;48.884;9.160;2023-05-20T14:32:42;27.30;78.10
3466;DHT22;1747;48.884;9.160;2023-05-20T14:35:09;27.10;78.80
3466;DHT22;1747;48.884;9.160;2023-05-20T14:37:35;27.10;79.20
3466;DHT22;1747;48.884;9.160;2023-05-20T14:40:05;27.10;79.20
3466;DHT22;1747;48.884;9.160;2023-05-20T14:42:33;27.10;79.50
3466;DHT22;1747;48.884;9.160;2023-05-20T14:44:59;27.20;79.50
3466;DHT22;1747;48.884;9.160;2023-05-20T14:47:26;27.50;78.80
3466;DHT22;1747;48.884;9.160;2023-05-20T14:49:55;28.00;78.60
3466;DHT22;1747;48.884;9.160;2023-05-20T14:52:22;28.70;78.40
3466;DHT22;1747;48.884;9.160;2023-05-20T14:54:48;29.30;78.80
3466;DHT22;1747;48.884;9.160;2023-05-20T14:57:17;30.10;77.30
3466;DHT22;1747;48.884;9.160;2023-05-20T14:59:45;30.50;75.20
3466;DHT22;1747;48.884;9.160;2023-05-20T15:02:11;30.70;74.40
3466;DHT22;1747;48.884;9.160;2023-05-20T15:04:38;31.00;73.70
3466;DHT22;1747;48.884;9.160;2023-05-20T15:07:06;31.20;71.80
3466;DHT22;1747;48.884;9.160;2023-05-20T15:09:33;31.20;71.70
3466;DHT22;1747;48.884;9.160;2023-05-20T15:12:00;31.00;71.50
3466;DHT22;1747;48.884;9.160;2023-05-20T15:14:28;30.80;72.70
3466;DHT22;1747;48.884;9.160;2023-05-20T15:16:55;30.30;72.40
3466;DHT22;1747;48.884;9.160;2023-05-20T15:19:22;29.90;72.90
3466;DHT22;1747;48.884;9.160;2023-05-20T15:21:49;29.40;73.90
3466;DHT22;1747;48.884;9.160;2023-05-20T15:24:16;29.10;74.50
3466;DHT22;1747;48.884;9.160;2023-05-20T15:26:43;28.80;75.50
3466;DHT22;1747;48.884;9.160;2023-05-20T15:29:10;28.60;76.90
3466;DHT22;1747;48.884;9.160;2023-05-20T15:31:38;28.50;75.90
3466;DHT22;1747;48.884;9.160;2023-05-20T15:34:05;28.20;75.60
3466;DHT22;1747;48.884;9.160;2023-05-20T15:36:31;28.00;75.60
3466;DHT22;1747;48.884;9.160;2023-05-20T15:38:58;27.60;76.30
3466;DHT22;1747;48.884;9.160;2023-05-20T15:41:25;27.30;76.10
3466;DHT22;1747;48.884;9.160;2023-05-20T15:43:52;27.10;76.30
3466;DHT22;1747;48.884;9.160;2023-05-20T15:46:19;27.00;76.60
3466;DHT22;1747;48.884;9.160;2023-05-20T15:48:47;27.00;77.50
3466;DHT22;1747;48.884;9.160;2023-05-20T15:51:13;27.00;77.30
3466;DHT22;1747;48.884;9.160;2023-05-20T15:53:42;27.00;77.20
3466;DHT22;1747;48.884;9.160;2023-05-20T15:56:10;27.00;77.80
3466;DHT22;1747;48.884;9.160;2023-05-20T15:58:37;27.00;78.50
3466;DHT22;1747;48.884;9.160;2023-05-20T16:01:04;27.10;78.90
3466;DHT22;1747;48.884;9.160;2023-05-20T16:03:32;27.30;78.40
3466;DHT22;1747;48.884;9.160;2023-05-20T16:06:00;27.30;77.70